sensor_id;sensor_type;location;lat;lon;timestamp;pressure;altitude;pressure_sealevel;temperature;humidity
7026;BME280;3554;42.132;24.786;2023-02-16T00:00:29;100743.50;;;4.27;100.00
7026;BME280;3554;42.132;24.786;2023-02-16T00:02:57;100745.31;;;4.38;100.00
7026;BME280;3554;42.132;24.786;2023-02-16T00:05:26;100742.72;;;4.38;100.00
7026;BME280;3554;42.132;24.786;2023-02-16T00:07:54;100743.50;;;4.29;100.00
7026;BME280;3554;42.132;24.786;2023-02-16T00:10:21;100685.25;;;3.71;100.00
7026;BME280;3554;42.132;24.786;2023-02-16T00:12:48;100734.69;;;4.03;100.00
7026;BME280;3554;42.132;24.786;2023-02-16T00:15:29;100748.53;;;4.09;100.00
7026;BME280;3554;42.132;24.786;2023-02-16T00:17:59;100726.16;;;4.17;100.00
7026;BME280;3554;42.132;24.786;2023-02-16T00:20:27;100734.81;;;4.21;100.00
7026;BME280;3554;42.132;24.786;2023-02-16T00:22:55;100733.22;;;4.40;100.00
7026;BME280;3554;42.132;24.786;2023-02-16T00:25:22;100736.66;;;4.35;100.00
7026;BME280;3554;42.132;24.786;2023-02-16T00:27:49;100734.00;;;4.23;100.00
7026;BME280;3554;42.132;24.786;2023-02-16T00:30:18;100717.50;;;4.11;100.00
7026;BME280;3554;42.132;24.786;2023-02-16T00:32:45;100731.28;;;4.11;100.00
7026;BME280;3554;42.132;24.786;2023-02-16T00:35:15;100681.00;;;3.81;100.00
7026;BME280;3554;42.132;24.786;2023-02-16T00:37:43;100732.91;;;3.97;100.00
7026;BME280;3554;42.132;24.786;2023-02-16T00:40:13;100731.94;;;3.80;100.00
7026;BME280;3554;42.132;24.786;2023-02-16T00:42:41;100718.97;;;3.77;100.00
7026;BME280;3554;42.132;24.786;2023-02-16T00:45:13;100728.59;;;3.96;100.00
7026;BME280;3554;42.132;24.786;2023-02-16T00:47:41;100739.88;;;4.06;100.00
7026;BME280;3554;42.132;24.786;2023-02-16T00:50:16;100733.03;;;4.11;100.00
7026;BME280;3554;42.132;24.786;2023-02-16T00:52:43;100739.06;;;4.11;100.00
7026;BME280;3554;42.132;24.786;2023-02-16T00:55:13;100729.41;;;3.91;100.00
7026;BME280;3554;42.132;24.786;2023-02-16T00:57:43;100687.50;;;3.35;100.00
7026;BME280;3554;42.132;24.786;2023-02-16T01:00:14;100677.94;;;3.28;100.00
7026;BME280;3554;42.132;24.786;2023-02-16T01:02:43;100699.50;;;3.27;100.00
7026;BME280;3554;42.132;24.786;2023-02-16T01:05:11;100733.25;;;3.39;100.00
7026;BME280;3554;42.132;24.786;2023-02-16T01:07:40;100731.25;;;3.14;100.00
7026;BME280;3554;42.132;24.786;2023-02-16T01:10:25;100672.22;;;2.75;100.00
7026;BME280;3554;42.132;24.786;2023-02-16T01:13:10;100732.97;;;3.12;100.00
7026;BME280;3554;42.132;24.786;2023-02-16T01:15:37;100734.84;;;3.26;100.00
7026;BME280;3554;42.132;24.786;2023-02-16T01:18:05;100727.75;;;3.09;100.00
7026;BME280;3554;42.132;24.786;2023-02-16T01:20:33;100737.56;;;2.65;100.00
7026;BME280;3554;42.132;24.786;2023-02-16T01:23:02;100729.53;;;2.46;100.00
7026;BME280;3554;42.132;24.786;2023-02-16T01:25:29;100727.72;;;2.39;100.00
7026;BME280;3554;42.132;24.786;2023-02-16T01:27:56;100732.97;;;2.45;100.00
7026;BME280;3554;42.132;24.786;2023-02-16T01:30:24;100716.63;;;2.46;100.00
7026;BME280;3554;42.132;24.786;2023-02-16T01:32:51;100729.75;;;2.59;100.00
7026;BME280;3554;42.132;24.786;2023-02-16T01:35:19;100709.44;;;2.24;100.00
7026;BME280;3554;42.132;24.786;2023-02-16T01:37:46;100733.09;;;2.54;100.00
7026;BME280;3554;42.132;24.786;2023-02-16T01:40:20;100730.53;;;2.54;100.00
7026;BME280;3554;42.132;24.786;2023-02-16T01:42:50;100725.31;;;2.49;100.00
7026;BME280;3554;42.132;24.786;2023-02-16T01:45:24;100663.78;;;2.22;100.00
7026;BME280;3554;42.132;24.786;2023-02-16T01:47:57;100738.25;;;2.52;100.00
7026;BME280;3554;42.132;24.786;2023-02-16T01:50:36;100726.16;;;2.50;100.00
7026;BME280;3554;42.132;24.786;2023-02-16T01:53:14;100736.31;;;2.38;100.00
7026;BME280;3554;42.132;24.786;2023-02-16T01:55:47;100715.44;;;2.22;100.00
7026;BME280;3554;42.132;24.786;2023-02-16T01:58:19;100741.59;;;2.44;100.00
7026;BME280;3554;42.132;24.786;2023-02-16T02:04:13;100716.59;;;2.43;100.00
7026;BME280;3554;42.132;24.786;2023-02-16T02:06:59;100735.41;;;2.34;100.00
7026;BME280;3554;42.132;24.786;2023-02-16T02:09:30;100739.69;;;2.31;100.00
7026;BME280;3554;42.132;24.786;2023-02-16T02:12:09;100727.00;;;2.47;100.00
7026;BME280;3554;42.132;24.786;2023-02-16T02:14:39;100729.78;;;2.64;100.00
7026;BME280;3554;42.132;24.786;2023-02-16T02:17:09;100664.59;;;2.18;100.00
7026;BME280;3554;42.132;24.786;2023-02-16T02:19:44;100717.56;;;2.51;100.00
7026;BME280;3554;42.132;24.786;2023-02-16T02:28:45;100724.56;;;2.58;100.00
7026;BME280;3554;42.132;24.786;2023-02-16T02:31:20;100727.91;;;2.51;100.00
7026;BME280;3554;42.132;24.786;2023-02-16T02:34:00;100725.31;;;2.51;100.00
7026;BME280;3554;42.132;24.786;2023-02-16T02:36:33;100729.66;;;2.55;100.00
7026;BME280;3554;42.132;24.786;2023-02-16T02:39:12;100707.78;;;2.29;100.00
7026;BME280;3554;42.132;24.786;2023-02-16T02:41:50;100726.84;;;2.37;100.00
7026;BME280;3554;42.132;24.786;2023-02-16T02:44:40;100718.59;;;2.02;100.00
7026;BME280;3554;42.132;24.786;2023-02-16T02:47:08;100731.72;;;2.17;100.00
7026;BME280;3554;42.132;24.786;2023-02-16T02:49:35;100733.47;;;2.18;100.00
7026;BME280;3554;42.132;24.786;2023-02-16T02:52:02;100719.59;;;2.11;100.00
7026;BME280;3554;42.132;24.786;2023-02-16T02:54:30;100735.00;;;2.07;100.00
7026;BME280;3554;42.132;24.786;2023-02-16T02:57:18;100740.97;;;1.51;100.00
7026;BME280;3554;42.132;24.786;2023-02-16T03:00:08;100717.00;;;1.58;100.00
7026;BME280;3554;42.132;24.786;2023-02-16T03:02:57;100740.38;;;1.65;100.00
7026;BME280;3554;42.132;24.786;2023-02-16T03:05:26;100736.78;;;1.59;100.00
7026;BME280;3554;42.132;24.786;2023-02-16T03:07:57;100741.19;;;1.64;100.00
7026;BME280;3554;42.132;24.786;2023-02-16T03:10:32;100742.97;;;1.67;100.00
7026;BME280;3554;42.132;24.786;2023-02-16T03:13:21;100736.09;;;1.67;100.00
7026;BME280;3554;42.132;24.786;2023-02-16T03:15:53;100738.06;;;1.83;100.00
7026;BME280;3554;42.132;24.786;2023-02-16T03:18:24;100726.97;;;1.89;100.00
7026;BME280;3554;42.132;24.786;2023-02-16T03:21:10;100742.72;;;2.05;100.00
7026;BME280;3554;42.132;24.786;2023-02-16T03:23:57;100730.72;;;2.07;100.00
7026;BME280;3554;42.132;24.786;2023-02-16T03:26:43;100738.75;;;2.26;100.00
7026;BME280;3554;42.132;24.786;2023-02-16T03:29:28;100735.41;;;2.33;100.00
7026;BME280;3554;42.132;24.786;2023-02-16T03:31:56;100732.78;;;2.30;100.00
7026;BME280;3554;42.132;24.786;2023-02-16T03:34:24;100673.69;;;1.92;100.00
7026;BME280;3554;42.132;24.786;2023-02-16T03:36:54;100735.38;;;2.31;100.00
7026;BME280;3554;42.132;24.786;2023-02-16T03:39:23;100730.31;;;2.39;100.00
7026;BME280;3554;42.132;24.786;2023-02-16T03:41:52;100726.63;;;2.22;100.00
7026;BME280;3554;42.132;24.786;2023-02-16T03:44:19;100733.59;;;2.27;100.00
7026;BME280;3554;42.132;24.786;2023-02-16T03:46:46;100742.16;;;2.26;100.00
7026;BME280;3554;42.132;24.786;2023-02-16T03:49:15;100685.66;;;1.89;100.00
7026;BME280;3554;42.132;24.786;2023-02-16T03:51:42;100742.16;;;2.25;100.00
7026;BME280;3554;42.132;24.786;2023-02-16T03:54:09;100736.91;;;2.17;100.00
7026;BME280;3554;42.132;24.786;2023-02-16T03:56:36;100737.94;;;2.30;100.00
7026;BME280;3554;42.132;24.786;2023-02-16T03:59:03;100743.16;;;2.34;100.00
7026;BME280;3554;42.132;24.786;2023-02-16T04:01:30;100734.53;;;2.34;100.00
7026;BME280;3554;42.132;24.786;2023-02-16T04:03:56;100745.00;;;2.41;100.00
7026;BME280;3554;42.132;24.786;2023-02-16T04:06:25;100727.44;;;2.19;100.00
7026;BME280;3554;42.132;24.786;2023-02-16T04:08:52;100726.81;;;2.35;100.00
7026;BME280;3554;42.132;24.786;2023-02-16T04:11:18;100740.56;;;2.33;100.00
7026;BME280;3554;42.132;24.786;2023-02-16T04:14:03;100737.97;;;2.33;100.00
7026;BME280;3554;42.132;24.786;2023-02-16T04:16:29;100743.97;;;2.30;100.00
7026;BME280;3554;42.132;24.786;2023-02-16T04:18:56;100742.28;;;2.32;100.00
7026;BME280;3554;42.132;24.786;2023-02-16T04:21:24;100739.78;;;2.37;100.00
7026;BME280;3554;42.132;24.786;2023-02-16T04:23:51;100748.44;;;2.42;100.00
7026;BME280;3554;42.132;24.786;2023-02-16T04:26:18;100749.22;;;2.36;100.00
7026;BME280;3554;42.132;24.786;2023-02-16T04:28:44;100733.56;;;2.26;100.00
7026;BME280;3554;42.132;24.786;2023-02-16T04:31:11;100737.22;;;2.38;100.00
7026;BME280;3554;42.132;24.786;2023-02-16T04:33:38;100740.63;;;2.39;100.00
7026;BME280;3554;42.132;24.786;2023-02-16T04:36:06;100741.53;;;2.42;100.00
7026;BME280;3554;42.132;24.786;2023-02-16T04:38:34;100733.78;;;2.41;100.00
7026;BME280;3554;42.132;24.786;2023-02-16T04:41:01;100753.63;;;2.42;100.00
7026;BME280;3554;42.132;24.786;2023-02-16T04:43:27;100752.69;;;2.37;100.00
7026;BME280;3554;42.132;24.786;2023-02-16T04:45:54;100748.06;;;2.17;100.00
7026;BME280;3554;42.132;24.786;2023-02-16T04:48:21;100755.75;;;2.11;100.00
7026;BME280;3554;42.132;24.786;2023-02-16T04:50:49;100744.94;;;1.81;100.00
7026;BME280;3554;42.132;24.786;2023-02-16T04:53:15;100769.97;;;1.87;100.00
7026;BME280;3554;42.132;24.786;2023-02-16T04:55:45;100759.75;;;1.93;100.00
7026;BME280;3554;42.132;24.786;2023-02-16T04:58:13;100760.47;;;1.86;100.00
7026;BME280;3554;42.132;24.786;2023-02-16T05:00:39;100769.88;;;1.81;100.00
7026;BME280;3554;42.132;24.786;2023-02-16T05:03:06;100775.00;;;1.79;100.00
7026;BME280;3554;42.132;24.786;2023-02-16T05:05:33;100755.84;;;1.65;100.00
7026;BME280;3554;42.132;24.786;2023-02-16T05:08:00;100761.78;;;1.61;100.00
7026;BME280;3554;42.132;24.786;2023-02-16T05:10:27;100762.56;;;1.57;100.00
7026;BME280;3554;42.132;24.786;2023-02-16T05:12:55;100784.03;;;1.55;100.00
7026;BME280;3554;42.132;24.786;2023-02-16T05:15:40;100782.31;;;1.57;100.00
7026;BME280;3554;42.132;24.786;2023-02-16T05:18:07;100777.22;;;1.58;100.00
7026;BME280;3554;42.132;24.786;2023-02-16T05:20:33;100775.50;;;1.59;100.00
7026;BME280;3554;42.132;24.786;2023-02-16T05:23:17;100786.69;;;1.59;100.00
7026;BME280;3554;42.132;24.786;2023-02-16T05:25:44;100779.81;;;1.58;100.00
7026;BME280;3554;42.132;24.786;2023-02-16T05:28:12;100780.59;;;1.54;100.00
7026;BME280;3554;42.132;24.786;2023-02-16T05:30:39;100784.88;;;1.54;100.00
7026;BME280;3554;42.132;24.786;2023-02-16T05:33:06;100790.13;;;1.58;100.00
7026;BME280;3554;42.132;24.786;2023-02-16T05:35:32;100794.59;;;1.68;100.00
7026;BME280;3554;42.132;24.786;2023-02-16T05:37:59;100798.84;;;1.66;100.00
7026;BME280;3554;42.132;24.786;2023-02-16T05:40:26;100789.44;;;1.68;100.00
7026;BME280;3554;42.132;24.786;2023-02-16T05:42:53;100784.31;;;1.71;100.00
7026;BME280;3554;42.132;24.786;2023-02-16T05:45:21;100795.84;;;1.91;100.00
7026;BME280;3554;42.132;24.786;2023-02-16T05:47:48;100804.53;;;1.96;100.00
7026;BME280;3554;42.132;24.786;2023-02-16T05:50:17;100800.47;;;2.09;100.00
7026;BME280;3554;42.132;24.786;2023-02-16T05:52:44;100797.06;;;2.11;100.00
7026;BME280;3554;42.132;24.786;2023-02-16T05:55:11;100790.97;;;2.06;100.00
7026;BME280;3554;42.132;24.786;2023-02-16T05:57:37;100800.47;;;2.09;100.00
7026;BME280;3554;42.132;24.786;2023-02-16T06:00:05;100798.72;;;2.06;100.00
7026;BME280;3554;42.132;24.786;2023-02-16T06:02:34;100798.81;;;2.14;100.00
7026;BME280;3554;42.132;24.786;2023-02-16T06:05:01;100799.88;;;2.27;100.00
7026;BME280;3554;42.132;24.786;2023-02-16T06:07:27;100795.56;;;2.24;100.00
7026;BME280;3554;42.132;24.786;2023-02-16T06:09:54;100792.38;;;2.43;100.00
7026;BME280;3554;42.132;24.786;2023-02-16T06:12:21;100787.19;;;2.42;100.00
7026;BME280;3554;42.132;24.786;2023-02-16T06:14:48;100800.16;;;2.46;100.00
7026;BME280;3554;42.132;24.786;2023-02-16T06:17:14;100803.78;;;2.56;100.00
7026;BME280;3554;42.132;24.786;2023-02-16T06:19:42;100801.25;;;2.62;100.00
7026;BME280;3554;42.132;24.786;2023-02-16T06:22:09;100804.81;;;2.68;100.00
7026;BME280;3554;42.132;24.786;2023-02-16T06:24:36;100812.72;;;2.80;100.00
7026;BME280;3554;42.132;24.786;2023-02-16T06:27:03;100802.44;;;2.85;100.00
7026;BME280;3554;42.132;24.786;2023-02-16T06:29:29;100819.03;;;2.99;100.00
7026;BME280;3554;42.132;24.786;2023-02-16T06:31:56;100817.50;;;3.14;100.00
7026;BME280;3554;42.132;24.786;2023-02-16T06:34:24;100820.19;;;3.22;100.00
7026;BME280;3554;42.132;24.786;2023-02-16T06:36:52;100819.41;;;3.29;100.00
7026;BME280;3554;42.132;24.786;2023-02-16T06:39:19;100821.22;;;3.35;100.00
7026;BME280;3554;42.132;24.786;2023-02-16T06:41:46;100816.06;;;3.39;100.00
7026;BME280;3554;42.132;24.786;2023-02-16T06:44:14;100821.25;;;3.42;100.00
7026;BME280;3554;42.132;24.786;2023-02-16T06:46:43;100818.84;;;3.56;100.00
7026;BME280;3554;42.132;24.786;2023-02-16T06:49:11;100824.28;;;3.83;100.00
7026;BME280;3554;42.132;24.786;2023-02-16T06:51:38;100818.38;;;3.96;100.00
7026;BME280;3554;42.132;24.786;2023-02-16T06:54:06;100827.06;;;4.01;100.00
7026;BME280;3554;42.132;24.786;2023-02-16T06:56:33;100821.06;;;4.08;100.00
7026;BME280;3554;42.132;24.786;2023-02-16T06:59:00;100819.28;;;3.99;100.00
7026;BME280;3554;42.132;24.786;2023-02-16T07:01:27;100826.25;;;4.09;100.00
7026;BME280;3554;42.132;24.786;2023-02-16T07:03:55;100823.66;;;4.08;100.00
7026;BME280;3554;42.132;24.786;2023-02-16T07:06:23;100811.03;;;3.51;100.00
7026;BME280;3554;42.132;24.786;2023-02-16T07:08:51;100826.94;;;3.87;100.00
7026;BME280;3554;42.132;24.786;2023-02-16T07:11:19;100831.22;;;3.85;100.00
7026;BME280;3554;42.132;24.786;2023-02-16T07:13:46;100830.25;;;3.76;100.00
7026;BME280;3554;42.132;24.786;2023-02-16T07:16:13;100820.84;;;3.06;100.00
7026;BME280;3554;42.132;24.786;2023-02-16T07:18:40;100834.09;;;3.33;100.00
7026;BME280;3554;42.132;24.786;2023-02-16T07:21:07;100843.88;;;3.58;100.00
7026;BME280;3554;42.132;24.786;2023-02-16T07:23:34;100834.03;;;3.27;100.00
7026;BME280;3554;42.132;24.786;2023-02-16T07:26:01;100843.59;;;3.31;100.00
7026;BME280;3554;42.132;24.786;2023-02-16T07:28:29;100833.41;;;3.49;100.00
7026;BME280;3554;42.132;24.786;2023-02-16T07:30:56;100823.84;;;3.42;100.00
7026;BME280;3554;42.132;24.786;2023-02-16T07:33:22;100840.47;;;3.61;100.00
7026;BME280;3554;42.132;24.786;2023-02-16T07:35:49;100831.06;;;3.69;100.00
7026;BME280;3554;42.132;24.786;2023-02-16T07:38:16;100831.78;;;3.56;100.00
7026;BME280;3554;42.132;24.786;2023-02-16T07:40:43;100839.16;;;3.24;100.00
7026;BME280;3554;42.132;24.786;2023-02-16T07:43:09;100834.69;;;3.86;100.00
7026;BME280;3554;42.132;24.786;2023-02-16T07:45:38;100834.16;;;4.23;100.00
7026;BME280;3554;42.132;24.786;2023-02-16T07:48:04;100825.50;;;4.19;100.00
7026;BME280;3554;42.132;24.786;2023-02-16T07:50:31;100833.28;;;4.19;100.00
7026;BME280;3554;42.132;24.786;2023-02-16T07:52:59;100828.34;;;4.51;100.00
7026;BME280;3554;42.132;24.786;2023-02-16T07:55:26;100837.13;;;4.74;100.00
7026;BME280;3554;42.132;24.786;2023-02-16T07:57:53;100831.94;;;4.74;100.00
7026;BME280;3554;42.132;24.786;2023-02-16T08:00:22;100834.59;;;4.86;100.00
7026;BME280;3554;42.132;24.786;2023-02-16T08:02:50;100821.72;;;5.00;100.00
7026;BME280;3554;42.132;24.786;2023-02-16T08:05:17;100833.66;;;4.72;100.00
7026;BME280;3554;42.132;24.786;2023-02-16T08:07:44;100832.63;;;4.48;100.00
7026;BME280;3554;42.132;24.786;2023-02-16T08:10:12;100832.91;;;4.87;100.00
7026;BME280;3554;42.132;24.786;2023-02-16T08:12:40;100835.59;;;5.02;100.00
7026;BME280;3554;42.132;24.786;2023-02-16T08:15:08;100839.16;;;5.26;100.00
7026;BME280;3554;42.132;24.786;2023-02-16T08:17:35;100835.78;;;5.58;100.00
7026;BME280;3554;42.132;24.786;2023-02-16T08:20:06;100840.25;;;5.87;100.00
7026;BME280;3554;42.132;24.786;2023-02-16T08:22:34;100833.34;;;6.07;100.00
7026;BME280;3554;42.132;24.786;2023-02-16T08:25:01;100828.16;;;6.27;100.00
7026;BME280;3554;42.132;24.786;2023-02-16T08:27:29;100829.00;;;6.41;100.00
7026;BME280;3554;42.132;24.786;2023-02-16T08:29:56;100827.25;;;6.63;100.00
7026;BME280;3554;42.132;24.786;2023-02-16T08:32:23;100827.28;;;6.38;100.00
7026;BME280;3554;42.132;24.786;2023-02-16T08:34:50;100818.59;;;6.56;100.00
7026;BME280;3554;42.132;24.786;2023-02-16T08:37:19;100828.06;;;6.87;100.00
7026;BME280;3554;42.132;24.786;2023-02-16T08:39:46;100822.81;;;7.07;100.00
7026;BME280;3554;42.132;24.786;2023-02-16T08:42:13;100818.47;;;7.10;100.00
7026;BME280;3554;42.132;24.786;2023-02-16T08:44:40;100827.03;;;7.33;100.00
7026;BME280;3554;42.132;24.786;2023-02-16T08:47:07;100818.34;;;7.43;100.00
7026;BME280;3554;42.132;24.786;2023-02-16T08:49:35;100775.00;;;7.23;100.00
7026;BME280;3554;42.132;24.786;2023-02-16T08:52:02;100812.31;;;7.31;100.00
7026;BME280;3554;42.132;24.786;2023-02-16T08:54:31;100816.56;;;7.54;100.00
7026;BME280;3554;42.132;24.786;2023-02-16T08:56:58;100801.72;;;7.64;100.00
7026;BME280;3554;42.132;24.786;2023-02-16T08:59:27;100812.16;;;7.67;100.00
7026;BME280;3554;42.132;24.786;2023-02-16T09:01:54;100805.94;;;7.86;100.00
7026;BME280;3554;42.132;24.786;2023-02-16T09:04:21;100803.25;;;7.97;100.00
7026;BME280;3554;42.132;24.786;2023-02-16T09:06:48;100804.34;;;7.61;100.00
7026;BME280;3554;42.132;24.786;2023-02-16T09:09:16;100816.63;;;7.44;100.00
7026;BME280;3554;42.132;24.786;2023-02-16T09:11:44;100791.34;;;7.53;100.00
7026;BME280;3554;42.132;24.786;2023-02-16T09:14:11;100798.19;;;7.74;100.00
7026;BME280;3554;42.132;24.786;2023-02-16T09:16:38;100796.38;;;7.84;100.00
7026;BME280;3554;42.132;24.786;2023-02-16T09:19:10;100763.38;;;7.83;100.00
7026;BME280;3554;42.132;24.786;2023-02-16T09:21:39;100798.75;;;8.17;100.00
7026;BME280;3554;42.132;24.786;2023-02-16T09:24:06;100785.69;;;8.26;100.00
7026;BME280;3554;42.132;24.786;2023-02-16T09:26:35;100779.53;;;8.30;100.00
7026;BME280;3554;42.132;24.786;2023-02-16T09:29:04;100791.84;;;8.08;100.00
7026;BME280;3554;42.132;24.786;2023-02-16T09:31:33;100779.75;;;8.03;100.00
7026;BME280;3554;42.132;24.786;2023-02-16T09:34:04;100795.22;;;8.22;100.00
7026;BME280;3554;42.132;24.786;2023-02-16T09:36:32;100776.94;;;8.30;100.00
7026;BME280;3554;42.132;24.786;2023-02-16T09:38:59;100797.63;;;8.48;100.00
7026;BME280;3554;42.132;24.786;2023-02-16T09:41:31;100788.66;;;8.76;100.00
7026;BME280;3554;42.132;24.786;2023-02-16T09:44:00;100789.44;;;8.86;100.00
7026;BME280;3554;42.132;24.786;2023-02-16T09:46:31;100794.69;;;8.83;100.00
7026;BME280;3554;42.132;24.786;2023-02-16T09:49:00;100784.09;;;8.95;100.00
7026;BME280;3554;42.132;24.786;2023-02-16T09:51:37;100766.91;;;8.77;100.00
7026;BME280;3554;42.132;24.786;2023-02-16T09:54:14;100764.03;;;8.98;100.00
7026;BME280;3554;42.132;24.786;2023-02-16T09:56:53;100773.25;;;9.26;100.00
7026;BME280;3554;42.132;24.786;2023-02-16T09:59:33;100711.59;;;9.16;100.00
7026;BME280;3554;42.132;24.786;2023-02-16T10:02:21;100759.25;;;9.32;100.00
7026;BME280;3554;42.132;24.786;2023-02-16T10:05:02;100759.56;;;9.06;100.00
7026;BME280;3554;42.132;24.786;2023-02-16T10:07:41;100753.28;;;9.22;100.00
7026;BME280;3554;42.132;24.786;2023-02-16T10:10:13;100747.84;;;9.39;100.00
7026;BME280;3554;42.132;24.786;2023-02-16T10:12:47;100752.28;;;9.34;100.00
7026;BME280;3554;42.132;24.786;2023-02-16T10:15:18;100746.81;;;9.49;100.00
7026;BME280;3554;42.132;24.786;2023-02-16T10:17:51;100739.75;;;9.57;100.00
7026;BME280;3554;42.132;24.786;2023-02-16T10:20:23;100750.78;;;9.75;100.00
7026;BME280;3554;42.132;24.786;2023-02-16T10:22:54;100709.91;;;9.71;100.00
7026;BME280;3554;42.132;24.786;2023-02-16T10:25:26;100735.59;;;10.00;100.00
7026;BME280;3554;42.132;24.786;2023-02-16T10:28:03;100719.84;;;10.02;100.00
7026;BME280;3554;42.132;24.786;2023-02-16T10:30:31;100668.69;;;9.86;100.00
7026;BME280;3554;42.132;24.786;2023-02-16T10:33:03;100728.75;;;10.42;100.00
7026;BME280;3554;42.132;24.786;2023-02-16T10:35:41;100676.03;;;10.16;100.00
7026;BME280;3554;42.132;24.786;2023-02-16T10:38:13;100726.31;;;10.33;100.00
7026;BME280;3554;42.132;24.786;2023-02-16T10:40:50;100716.75;;;10.32;100.00
7026;BME280;3554;42.132;24.786;2023-02-16T10:43:24;100723.75;;;10.30;100.00
7026;BME280;3554;42.132;24.786;2023-02-16T10:45:59;100716.66;;;10.36;100.00
7026;BME280;3554;42.132;24.786;2023-02-16T10:48:29;100711.28;;;10.44;100.00
7026;BME280;3554;42.132;24.786;2023-02-16T10:51:00;100700.53;;;10.57;100.00
7026;BME280;3554;42.132;24.786;2023-02-16T10:53:34;100715.28;;;10.63;99.02
7026;BME280;3554;42.132;24.786;2023-02-16T10:56:29;100706.78;;;10.50;96.47
7026;BME280;3554;42.132;24.786;2023-02-16T10:59:04;100698.31;;;10.36;94.09
7026;BME280;3554;42.132;24.786;2023-02-16T11:01:35;100689.84;;;10.24;93.17
7026;BME280;3554;42.132;24.786;2023-02-16T11:04:04;100694.69;;;10.43;92.39
7026;BME280;3554;42.132;24.786;2023-02-16T11:06:32;100696.56;;;10.38;90.93
7026;BME280;3554;42.132;24.786;2023-02-16T11:09:01;100677.34;;;10.39;91.73
7026;BME280;3554;42.132;24.786;2023-02-16T11:11:34;100680.84;;;10.38;91.47
7026;BME280;3554;42.132;24.786;2023-02-16T11:14:03;100681.84;;;10.31;90.63
7026;BME280;3554;42.132;24.786;2023-02-16T11:16:31;100678.38;;;10.31;91.66
7026;BME280;3554;42.132;24.786;2023-02-16T11:19:00;100675.38;;;10.52;89.53
7026;BME280;3554;42.132;24.786;2023-02-16T11:21:44;100658.66;;;10.57;88.76
7026;BME280;3554;42.132;24.786;2023-02-16T11:24:22;100669.47;;;10.41;87.88
7026;BME280;3554;42.132;24.786;2023-02-16T11:26:59;100628.63;;;10.32;88.66
7026;BME280;3554;42.132;24.786;2023-02-16T11:29:27;100664.78;;;10.56;88.84
7026;BME280;3554;42.132;24.786;2023-02-16T11:31:54;100657.69;;;10.61;88.61
7026;BME280;3554;42.132;24.786;2023-02-16T11:34:29;100654.75;;;10.78;87.12
7026;BME280;3554;42.132;24.786;2023-02-16T11:37:23;100649.31;;;10.87;85.57
7026;BME280;3554;42.132;24.786;2023-02-16T11:39:52;100645.97;;;10.79;84.76
7026;BME280;3554;42.132;24.786;2023-02-16T11:42:27;100643.94;;;10.93;84.39
7026;BME280;3554;42.132;24.786;2023-02-16T11:44:57;100643.84;;;10.98;83.95
7026;BME280;3554;42.132;24.786;2023-02-16T11:47:27;100637.50;;;11.08;81.32
7026;BME280;3554;42.132;24.786;2023-02-16T11:50:17;100639.03;;;11.18;80.86
7026;BME280;3554;42.132;24.786;2023-02-16T11:52:46;100622.41;;;11.19;80.39
7026;BME280;3554;42.132;24.786;2023-02-16T11:55:23;100634.13;;;11.41;79.56
7026;BME280;3554;42.132;24.786;2023-02-16T11:57:52;100629.44;;;11.52;80.28
7026;BME280;3554;42.132;24.786;2023-02-16T12:00:22;100627.25;;;11.72;78.88
7026;BME280;3554;42.132;24.786;2023-02-16T12:03:14;100623.25;;;11.56;77.66
7026;BME280;3554;42.132;24.786;2023-02-16T12:05:56;100616.47;;;11.47;78.02
7026;BME280;3554;42.132;24.786;2023-02-16T12:08:40;100601.63;;;11.10;77.94
7026;BME280;3554;42.132;24.786;2023-02-16T12:11:21;100599.16;;;11.04;78.84
7026;BME280;3554;42.132;24.786;2023-02-16T12:14:02;100609.63;;;11.42;78.01
7026;BME280;3554;42.132;24.786;2023-02-16T12:16:41;100605.03;;;11.50;77.03
7026;BME280;3554;42.132;24.786;2023-02-16T12:19:22;100603.72;;;11.34;76.67
7026;BME280;3554;42.132;24.786;2023-02-16T12:21:51;100600.56;;;11.55;75.62
7026;BME280;3554;42.132;24.786;2023-02-16T12:24:32;100595.41;;;11.50;77.31
7026;BME280;3554;42.132;24.786;2023-02-16T12:27:02;100581.34;;;11.54;76.78
7026;BME280;3554;42.132;24.786;2023-02-16T12:29:39;100577.69;;;11.60;75.99
7026;BME280;3554;42.132;24.786;2023-02-16T12:32:19;100580.53;;;11.86;75.49
7026;BME280;3554;42.132;24.786;2023-02-16T12:35:02;100561.16;;;11.92;76.00
7026;BME280;3554;42.132;24.786;2023-02-16T12:37:38;100571.88;;;11.82;73.33
7026;BME280;3554;42.132;24.786;2023-02-16T12:40:18;100567.50;;;11.83;74.04
7026;BME280;3554;42.132;24.786;2023-02-16T12:43:00;100562.22;;;11.84;73.95
7026;BME280;3554;42.132;24.786;2023-02-16T12:45:31;100564.50;;;11.97;74.79
7026;BME280;3554;42.132;24.786;2023-02-16T12:48:01;100510.88;;;11.76;73.10
7026;BME280;3554;42.132;24.786;2023-02-16T12:50:35;100559.44;;;12.21;71.55
7026;BME280;3554;42.132;24.786;2023-02-16T12:53:06;100559.31;;;12.26;71.79
7026;BME280;3554;42.132;24.786;2023-02-16T12:55:42;100556.03;;;12.19;70.36
7026;BME280;3554;42.132;24.786;2023-02-16T12:58:16;100553.91;;;12.30;69.31
7026;BME280;3554;42.132;24.786;2023-02-16T13:00:47;100533.38;;;12.15;71.18
7026;BME280;3554;42.132;24.786;2023-02-16T13:03:31;100540.22;;;12.21;70.31
7026;BME280;3554;42.132;24.786;2023-02-16T13:06:16;100541.09;;;12.20;69.82
7026;BME280;3554;42.132;24.786;2023-02-16T13:08:49;100536.03;;;12.14;70.21
7026;BME280;3554;42.132;24.786;2023-02-16T13:11:23;100532.75;;;12.36;70.10
7026;BME280;3554;42.132;24.786;2023-02-16T13:13:57;100526.41;;;12.43;69.84
7026;BME280;3554;42.132;24.786;2023-02-16T13:16:35;100379.00;;;11.71;69.52
7026;BME280;3554;42.132;24.786;2023-02-16T13:19:04;100521.66;;;12.27;69.87
7026;BME280;3554;42.132;24.786;2023-02-16T13:22:08;100517.47;;;11.91;72.42
7026;BME280;3554;42.132;24.786;2023-02-16T13:24:48;100507.31;;;11.77;73.03
7026;BME280;3554;42.132;24.786;2023-02-16T13:27:30;100504.63;;;11.80;73.82
7026;BME280;3554;42.132;24.786;2023-02-16T13:30:05;100502.81;;;11.82;73.73